sensor_id;sensor_type;location;lat;lon;timestamp;pressure;altitude;pressure_sealevel;temperature;humidity
72959;BME280;60008;50.826;6.896;2023-04-26T00:01:52;101282.94;;;5.26;100.00
72959;BME280;60008;50.826;6.896;2023-04-26T00:04:38;101278.13;;;5.20;100.00
72959;BME280;60008;50.826;6.896;2023-04-26T00:07:23;101286.09;;;5.08;100.00
72959;BME280;60008;50.826;6.896;2023-04-26T00:10:09;101284.53;;;5.05;100.00
72959;BME280;60008;50.826;6.896;2023-04-26T00:12:54;101292.22;;;4.96;100.00
72959;BME280;60008;50.826;6.896;2023-04-26T00:15:39;101289.22;;;4.89;100.00
72959;BME280;60008;50.826;6.896;2023-04-26T00:18:24;101291.53;;;4.81;100.00
72959;BME280;60008;50.826;6.896;2023-04-26T00:21:09;101298.19;;;4.74;100.00
72959;BME280;60008;50.826;6.896;2023-04-26T00:23:54;101290.53;;;4.71;100.00
72959;BME280;60008;50.826;6.896;2023-04-26T00:26:39;101295.78;;;4.71;100.00
72959;BME280;60008;50.826;6.896;2023-04-26T00:29:24;101292.22;;;4.72;100.00
72959;BME280;60008;50.826;6.896;2023-04-26T00:32:09;101289.38;;;4.62;100.00
72959;BME280;60008;50.826;6.896;2023-04-26T00:34:54;101287.25;;;4.67;100.00
72959;BME280;60008;50.826;6.896;2023-04-26T00:37:40;101285.94;;;4.62;100.00
72959;BME280;60008;50.826;6.896;2023-04-26T00:40:25;101279.09;;;4.59;100.00
72959;BME280;60008;50.826;6.896;2023-04-26T00:43:10;101284.69;;;4.55;100.00
72959;BME280;60008;50.826;6.896;2023-04-26T00:45:55;101275.81;;;4.68;100.00
72959;BME280;60008;50.826;6.896;2023-04-26T00:48:41;101271.34;;;4.58;100.00
72959;BME280;60008;50.826;6.896;2023-04-26T00:51:26;101275.44;;;4.62;100.00
72959;BME280;60008;50.826;6.896;2023-04-26T00:54:12;101283.38;;;4.37;100.00
72959;BME280;60008;50.826;6.896;2023-04-26T00:56:58;101277.78;;;4.41;100.00
72959;BME280;60008;50.826;6.896;2023-04-26T00:59:44;101276.63;;;4.33;100.00
72959;BME280;60008;50.826;6.896;2023-04-26T01:02:29;101277.41;;;4.35;100.00
72959;BME280;60008;50.826;6.896;2023-04-26T01:05:14;101283.38;;;4.37;100.00
72959;BME280;60008;50.826;6.896;2023-04-26T01:07:59;101277.38;;;4.47;100.00
72959;BME280;60008;50.826;6.896;2023-04-26T01:10:47;101287.25;;;4.31;100.00
72959;BME280;60008;50.826;6.896;2023-04-26T01:13:33;101292.50;;;4.31;100.00
72959;BME280;60008;50.826;6.896;2023-04-26T01:16:18;101290.22;;;4.27;100.00
72959;BME280;60008;50.826;6.896;2023-04-26T01:19:09;101280.75;;;4.24;100.00
72959;BME280;60008;50.826;6.896;2023-04-26T01:21:56;101284.41;;;4.21;100.00
72959;BME280;60008;50.826;6.896;2023-04-26T01:24:45;101283.81;;;4.18;100.00
72959;BME280;60008;50.826;6.896;2023-04-26T01:27:32;101288.75;;;4.10;100.00
72959;BME280;60008;50.826;6.896;2023-04-26T01:30:17;101288.97;;;4.07;100.00
72959;BME280;60008;50.826;6.896;2023-04-26T01:33:04;101290.00;;;4.04;100.00
72959;BME280;60008;50.826;6.896;2023-04-26T01:35:50;101285.69;;;4.03;100.00
72959;BME280;60008;50.826;6.896;2023-04-26T01:38:35;101289.91;;;3.93;100.00
72959;BME280;60008;50.826;6.896;2023-04-26T01:41:20;101292.41;;;3.82;100.00
72959;BME280;60008;50.826;6.896;2023-04-26T01:44:06;101288.94;;;3.82;100.00
72959;BME280;60008;50.826;6.896;2023-04-26T01:46:51;101292.09;;;3.74;100.00
72959;BME280;60008;50.826;6.896;2023-04-26T01:49:36;101294.06;;;3.71;100.00
72959;BME280;60008;50.826;6.896;2023-04-26T01:52:21;101289.56;;;3.73;100.00
72959;BME280;60008;50.826;6.896;2023-04-26T01:55:07;101288.94;;;3.69;100.00
72959;BME280;60008;50.826;6.896;2023-04-26T01:57:51;101297.75;;;3.68;100.00
72959;BME280;60008;50.826;6.896;2023-04-26T02:00:37;101290.59;;;3.70;100.00
72959;BME280;60008;50.826;6.896;2023-04-26T02:03:22;101289.56;;;3.60;100.00
72959;BME280;60008;50.826;6.896;2023-04-26T02:06:07;101292.91;;;3.62;100.00
72959;BME280;60008;50.826;6.896;2023-04-26T02:08:52;101290.41;;;3.60;100.00
72959;BME280;60008;50.826;6.896;2023-04-26T02:11:38;101289.09;;;3.53;100.00
72959;BME280;60008;50.826;6.896;2023-04-26T02:14:23;101288.59;;;3.48;100.00
72959;BME280;60008;50.826;6.896;2023-04-26T02:17:08;101289.97;;;3.54;100.00
72959;BME280;60008;50.826;6.896;2023-04-26T02:19:54;101286.53;;;3.66;100.00
72959;BME280;60008;50.826;6.896;2023-04-26T02:22:40;101288.63;;;3.61;100.00
72959;BME280;60008;50.826;6.896;2023-04-26T02:25:25;101287.00;;;3.46;100.00
72959;BME280;60008;50.826;6.896;2023-04-26T02:28:10;101293.94;;;3.47;100.00
72959;BME280;60008;50.826;6.896;2023-04-26T02:30:55;101290.13;;;3.38;100.00
72959;BME280;60008;50.826;6.896;2023-04-26T02:33:40;101286.53;;;3.27;100.00
72959;BME280;60008;50.826;6.896;2023-04-26T02:36:25;101286.47;;;3.28;100.00
72959;BME280;60008;50.826;6.896;2023-04-26T02:39:11;101292.75;;;3.26;100.00
72959;BME280;60008;50.826;6.896;2023-04-26T02:41:55;101287.38;;;3.27;100.00
72959;BME280;60008;50.826;6.896;2023-04-26T02:44:41;101293.69;;;3.37;100.00
72959;BME280;60008;50.826;6.896;2023-04-26T02:47:26;101288.03;;;3.31;100.00
72959;BME280;60008;50.826;6.896;2023-04-26T02:50:11;101292.75;;;3.26;100.00
72959;BME280;60008;50.826;6.896;2023-04-26T02:52:57;101293.84;;;3.09;100.00
72959;BME280;60008;50.826;6.896;2023-04-26T02:55:42;101286.16;;;3.06;100.00
72959;BME280;60008;50.826;6.896;2023-04-26T02:58:27;101294.59;;;2.97;100.00
72959;BME280;60008;50.826;6.896;2023-04-26T03:01:12;101291.00;;;3.12;100.00
72959;BME280;60008;50.826;6.896;2023-04-26T03:03:58;101285.97;;;3.09;100.00
72959;BME280;60008;50.826;6.896;2023-04-26T03:06:43;101289.72;;;3.05;100.00
72959;BME280;60008;50.826;6.896;2023-04-26T03:09:28;101293.09;;;3.07;100.00
72959;BME280;60008;50.826;6.896;2023-04-26T03:12:13;101282.06;;;3.02;100.00
72959;BME280;60008;50.826;6.896;2023-04-26T03:14:58;101281.78;;;3.07;100.00
72959;BME280;60008;50.826;6.896;2023-04-26T03:17:43;101284.59;;;3.04;100.00
72959;BME280;60008;50.826;6.896;2023-04-26T03:20:28;101287.00;;;2.80;100.00
72959;BME280;60008;50.826;6.896;2023-04-26T03:23:13;101290.41;;;2.94;100.00
72959;BME280;60008;50.826;6.896;2023-04-26T03:25:59;101285.91;;;2.96;100.00
72959;BME280;60008;50.826;6.896;2023-04-26T03:28:44;101273.13;;;2.92;100.00
72959;BME280;60008;50.826;6.896;2023-04-26T03:31:29;101278.75;;;2.86;100.00
72959;BME280;60008;50.826;6.896;2023-04-26T03:34:14;101275.19;;;2.87;100.00
72959;BME280;60008;50.826;6.896;2023-04-26T03:36:59;101277.00;;;2.72;100.00
72959;BME280;60008;50.826;6.896;2023-04-26T03:39:44;101274.91;;;2.91;100.00
72959;BME280;60008;50.826;6.896;2023-04-26T03:42:29;101269.44;;;2.82;100.00
72959;BME280;60008;50.826;6.896;2023-04-26T03:45:14;101273.97;;;2.66;100.00
72959;BME280;60008;50.826;6.896;2023-04-26T03:47:59;101278.59;;;2.75;100.00
72959;BME280;60008;50.826;6.896;2023-04-26T03:50:44;101273.97;;;2.66;100.00
72959;BME280;60008;50.826;6.896;2023-04-26T03:53:30;101277.94;;;2.45;100.00
72959;BME280;60008;50.826;6.896;2023-04-26T03:56:14;101271.66;;;2.47;100.00
72959;BME280;60008;50.826;6.896;2023-04-26T03:59:08;101282.84;;;2.63;100.00
72959;BME280;60008;50.826;6.896;2023-04-26T04:01:53;101276.03;;;2.61;100.00
72959;BME280;60008;50.826;6.896;2023-04-26T04:04:38;101281.63;;;2.55;100.00
72959;BME280;60008;50.826;6.896;2023-04-26T04:07:24;101279.69;;;2.58;100.00
72959;BME280;60008;50.826;6.896;2023-04-26T04:10:10;101283.53;;;2.53;100.00
72959;BME280;60008;50.826;6.896;2023-04-26T04:12:55;101281.81;;;2.52;100.00
72959;BME280;60008;50.826;6.896;2023-04-26T04:15:43;101284.81;;;2.60;100.00
72959;BME280;60008;50.826;6.896;2023-04-26T04:18:28;101275.63;;;2.67;100.00
72959;BME280;60008;50.826;6.896;2023-04-26T04:21:13;101280.41;;;2.60;100.00
72959;BME280;60008;50.826;6.896;2023-04-26T04:23:58;101289.16;;;2.73;100.00
72959;BME280;60008;50.826;6.896;2023-04-26T04:26:44;101289.53;;;2.67;100.00
72959;BME280;60008;50.826;6.896;2023-04-26T04:29:29;101300.50;;;2.60;100.00
72959;BME280;60008;50.826;6.896;2023-04-26T04:32:15;101292.09;;;2.69;100.00
72959;BME280;60008;50.826;6.896;2023-04-26T04:35:01;101293.94;;;2.67;100.00
72959;BME280;60008;50.826;6.896;2023-04-26T04:37:46;101301.41;;;2.73;100.00
72959;BME280;60008;50.826;6.896;2023-04-26T04:40:31;101301.72;;;2.54;100.00
72959;BME280;60008;50.826;6.896;2023-04-26T04:43:16;101299.94;;;2.55;100.00
72959;BME280;60008;50.826;6.896;2023-04-26T04:46:01;101308.91;;;2.51;100.00
72959;BME280;60008;50.826;6.896;2023-04-26T04:48:46;101309.81;;;2.64;100.00
72959;BME280;60008;50.826;6.896;2023-04-26T04:51:32;101301.03;;;2.65;100.00
72959;BME280;60008;50.826;6.896;2023-04-26T04:54:17;101304.31;;;2.68;100.00
72959;BME280;60008;50.826;6.896;2023-04-26T04:57:02;101304.94;;;2.72;100.00
72959;BME280;60008;50.826;6.896;2023-04-26T04:59:49;101307.28;;;2.76;100.00
72959;BME280;60008;50.826;6.896;2023-04-26T05:02:35;101314.97;;;2.79;100.00
72959;BME280;60008;50.826;6.896;2023-04-26T05:05:21;101320.28;;;2.78;100.00
72959;BME280;60008;50.826;6.896;2023-04-26T05:08:06;101310.63;;;2.92;100.00
72959;BME280;60008;50.826;6.896;2023-04-26T05:10:52;101326.41;;;2.91;100.00
72959;BME280;60008;50.826;6.896;2023-04-26T05:13:37;101315.94;;;2.91;100.00
72959;BME280;60008;50.826;6.896;2023-04-26T05:16:22;101331.69;;;3.18;100.00
72959;BME280;60008;50.826;6.896;2023-04-26T05:19:07;101325.97;;;3.38;100.00
72959;BME280;60008;50.826;6.896;2023-04-26T05:21:53;101322.75;;;3.47;100.00
72959;BME280;60008;50.826;6.896;2023-04-26T05:24:40;101332.88;;;3.78;100.00
72959;BME280;60008;50.826;6.896;2023-04-26T05:27:27;101330.41;;;4.02;100.00
72959;BME280;60008;50.826;6.896;2023-04-26T05:30:12;101319.38;;;4.22;100.00
72959;BME280;60008;50.826;6.896;2023-04-26T05:32:57;101328.56;;;4.53;100.00
72959;BME280;60008;50.826;6.896;2023-04-26T05:35:42;101324.50;;;4.36;100.00
72959;BME280;60008;50.826;6.896;2023-04-26T05:38:27;101325.03;;;4.41;100.00
72959;BME280;60008;50.826;6.896;2023-04-26T05:41:12;101323.97;;;4.56;100.00
72959;BME280;60008;50.826;6.896;2023-04-26T05:43:58;101334.16;;;4.85;100.00
72959;BME280;60008;50.826;6.896;2023-04-26T05:46:43;101335.09;;;4.96;100.00
72959;BME280;60008;50.826;6.896;2023-04-26T05:49:29;101329.84;;;4.96;100.00
72959;BME280;60008;50.826;6.896;2023-04-26T05:52:14;101334.84;;;4.75;100.00
72959;BME280;60008;50.826;6.896;2023-04-26T05:54:59;101333.53;;;4.81;100.00
72959;BME280;60008;50.826;6.896;2023-04-26T05:57:47;101335.81;;;4.49;100.00
72959;BME280;60008;50.826;6.896;2023-04-26T06:00:33;101340.69;;;4.79;100.00
72959;BME280;60008;50.826;6.896;2023-04-26T06:03:18;101346.66;;;4.94;100.00
72959;BME280;60008;50.826;6.896;2023-04-26T06:06:04;101344.53;;;4.99;100.00
72959;BME280;60008;50.826;6.896;2023-04-26T06:08:49;101348.44;;;4.93;100.00
72959;BME280;60008;50.826;6.896;2023-04-26T06:11:34;101346.06;;;4.65;100.00
72959;BME280;60008;50.826;6.896;2023-04-26T06:14:19;101341.97;;;4.73;100.00
72959;BME280;60008;50.826;6.896;2023-04-26T06:17:14;101356.69;;;4.63;100.00
72959;BME280;60008;50.826;6.896;2023-04-26T06:19:59;101359.06;;;4.92;100.00
72959;BME280;60008;50.826;6.896;2023-04-26T06:22:46;101354.91;;;5.13;100.00
72959;BME280;60008;50.826;6.896;2023-04-26T06:25:31;101355.34;;;5.07;100.00
72959;BME280;60008;50.826;6.896;2023-04-26T06:28:17;101357.75;;;5.33;100.00
72959;BME280;60008;50.826;6.896;2023-04-26T06:31:03;101352.19;;;5.49;100.00
72959;BME280;60008;50.826;6.896;2023-04-26T06:33:47;101357.41;;;5.62;100.00
72959;BME280;60008;50.826;6.896;2023-04-26T06:36:33;101353.56;;;5.66;100.00
72959;BME280;60008;50.826;6.896;2023-04-26T06:39:17;101352.41;;;5.70;100.00
72959;BME280;60008;50.826;6.896;2023-04-26T06:42:03;101349.19;;;5.77;100.00
72959;BME280;60008;50.826;6.896;2023-04-26T06:44:48;101349.91;;;6.03;100.00
72959;BME280;60008;50.826;6.896;2023-04-26T06:47:34;101351.84;;;6.23;100.00
72959;BME280;60008;50.826;6.896;2023-04-26T06:50:19;101350.66;;;6.27;100.00
72959;BME280;60008;50.826;6.896;2023-04-26T06:53:04;101351.66;;;6.59;100.00
72959;BME280;60008;50.826;6.896;2023-04-26T06:55:49;101353.81;;;6.54;100.00
72959;BME280;60008;50.826;6.896;2023-04-26T06:58:37;101352.94;;;6.98;100.00
72959;BME280;60008;50.826;6.896;2023-04-26T07:01:21;101344.84;;;7.22;100.00
72959;BME280;60008;50.826;6.896;2023-04-26T07:04:07;101348.88;;;7.26;100.00
72959;BME280;60008;50.826;6.896;2023-04-26T07:06:54;101351.97;;;6.88;100.00
72959;BME280;60008;50.826;6.896;2023-04-26T07:09:42;101350.66;;;6.83;100.00
72959;BME280;60008;50.826;6.896;2023-04-26T07:12:27;101338.41;;;7.47;100.00
72959;BME280;60008;50.826;6.896;2023-04-26T07:15:12;101341.91;;;7.68;100.00
72959;BME280;60008;50.826;6.896;2023-04-26T07:17:57;101348.28;;;7.86;100.00
72959;BME280;60008;50.826;6.896;2023-04-26T07:20:42;101345.47;;;7.46;100.00
72959;BME280;60008;50.826;6.896;2023-04-26T07:23:28;101348.44;;;7.53;100.00
72959;BME280;60008;50.826;6.896;2023-04-26T07:26:13;101347.06;;;7.90;100.00
72959;BME280;60008;50.826;6.896;2023-04-26T07:28:58;101337.09;;;7.73;100.00
72959;BME280;60008;50.826;6.896;2023-04-26T07:31:45;101341.16;;;7.77;100.00
72959;BME280;60008;50.826;6.896;2023-04-26T07:34:29;101353.78;;;8.15;100.00
72959;BME280;60008;50.826;6.896;2023-04-26T07:37:15;101344.94;;;8.25;100.00
72959;BME280;60008;50.826;6.896;2023-04-26T07:40:00;101344.16;;;7.72;100.00
72959;BME280;60008;50.826;6.896;2023-04-26T07:42:45;101344.34;;;8.22;100.00
72959;BME280;60008;50.826;6.896;2023-04-26T07:45:31;101349.84;;;8.09;100.00
72959;BME280;60008;50.826;6.896;2023-04-26T07:48:16;101346.22;;;8.10;100.00
72959;BME280;60008;50.826;6.896;2023-04-26T07:51:11;101355.97;;;8.91;100.00
72959;BME280;60008;50.826;6.896;2023-04-26T07:53:56;101345.91;;;7.83;100.00
72959;BME280;60008;50.826;6.896;2023-04-26T07:56:41;101344.56;;;8.09;100.00
72959;BME280;60008;50.826;6.896;2023-04-26T07:59:26;101349.63;;;8.22;100.00
72959;BME280;60008;50.826;6.896;2023-04-26T08:02:11;101344.28;;;7.92;100.00
72959;BME280;60008;50.826;6.896;2023-04-26T08:04:57;101339.97;;;8.62;100.00
72959;BME280;60008;50.826;6.896;2023-04-26T08:07:42;101344.81;;;8.97;100.00
72959;BME280;60008;50.826;6.896;2023-04-26T08:10:27;101352.22;;;9.03;100.00
72959;BME280;60008;50.826;6.896;2023-04-26T08:13:13;101352.31;;;8.52;100.00
72959;BME280;60008;50.826;6.896;2023-04-26T08:15:58;101343.53;;;8.72;100.00
72959;BME280;60008;50.826;6.896;2023-04-26T08:18:43;101338.78;;;9.64;100.00
72959;BME280;60008;50.826;6.896;2023-04-26T08:21:30;101341.28;;;10.50;100.00
72959;BME280;60008;50.826;6.896;2023-04-26T08:24:16;101335.16;;;11.04;91.84
72959;BME280;60008;50.826;6.896;2023-04-26T08:27:01;101328.59;;;9.69;94.67
72959;BME280;60008;50.826;6.896;2023-04-26T08:29:46;101329.59;;;9.39;98.97
72959;BME280;60008;50.826;6.896;2023-04-26T08:32:31;101329.44;;;10.54;89.39
72959;BME280;60008;50.826;6.896;2023-04-26T08:35:17;101325.78;;;10.55;94.28
72959;BME280;60008;50.826;6.896;2023-04-26T08:38:02;101330.00;;;11.02;84.35
72959;BME280;60008;50.826;6.896;2023-04-26T08:40:47;101331.44;;;11.14;86.04
72959;BME280;60008;50.826;6.896;2023-04-26T08:43:35;101327.66;;;10.72;88.44
72959;BME280;60008;50.826;6.896;2023-04-26T08:46:21;101332.69;;;11.20;75.11
72959;BME280;60008;50.826;6.896;2023-04-26T08:49:29;101326.22;;;9.94;95.48
72959;BME280;60008;50.826;6.896;2023-04-26T08:52:16;101330.94;;;11.11;77.94
72959;BME280;60008;50.826;6.896;2023-04-26T08:55:08;101321.91;;;11.39;70.30
72959;BME280;60008;50.826;6.896;2023-04-26T08:57:54;101326.94;;;11.24;80.41
72959;BME280;60008;50.826;6.896;2023-04-26T09:00:42;101321.50;;;12.05;80.19
72959;BME280;60008;50.826;6.896;2023-04-26T09:03:27;101327.84;;;11.68;80.77
72959;BME280;60008;50.826;6.896;2023-04-26T09:06:13;101331.06;;;10.18;87.77
72959;BME280;60008;50.826;6.896;2023-04-26T09:09:03;101336.81;;;10.13;88.50
72959;BME280;60008;50.826;6.896;2023-04-26T09:11:55;101333.16;;;10.05;89.96
72959;BME280;60008;50.826;6.896;2023-04-26T09:14:41;101327.03;;;10.04;89.12
72959;BME280;60008;50.826;6.896;2023-04-26T09:17:28;101322.78;;;11.57;83.62
72959;BME280;60008;50.826;6.896;2023-04-26T09:23:07;101310.78;;;14.04;62.75
72959;BME280;60008;50.826;6.896;2023-04-26T09:25:53;101307.81;;;11.56;73.20
72959;BME280;60008;50.826;6.896;2023-04-26T09:28:38;101314.56;;;11.68;80.80
72959;BME280;60008;50.826;6.896;2023-04-26T09:31:49;101315.97;;;10.92;70.49
72959;BME280;60008;50.826;6.896;2023-04-26T09:34:43;101312.81;;;10.52;74.58
72959;BME280;60008;50.826;6.896;2023-04-26T09:37:30;101314.09;;;11.02;82.58
72959;BME280;60008;50.826;6.896;2023-04-26T09:40:17;101307.84;;;9.74;77.10
72959;BME280;60008;50.826;6.896;2023-04-26T09:43:08;101316.06;;;9.32;88.60
72959;BME280;60008;50.826;6.896;2023-04-26T09:45:55;101303.41;;;8.67;74.00
72959;BME280;60008;50.826;6.896;2023-04-26T09:48:40;101304.94;;;9.67;69.07
72959;BME280;60008;50.826;6.896;2023-04-26T09:51:26;101305.31;;;9.82;79.95
72959;BME280;60008;50.826;6.896;2023-04-26T09:54:12;101299.78;;;9.75;75.49
72959;BME280;60008;50.826;6.896;2023-04-26T09:57:00;101298.22;;;9.82;78.33
72959;BME280;60008;50.826;6.896;2023-04-26T09:59:47;101291.00;;;10.31;63.86
72959;BME280;60008;50.826;6.896;2023-04-26T10:02:33;101290.72;;;9.68;60.15
72959;BME280;60008;50.826;6.896;2023-04-26T10:05:18;101291.34;;;11.88;56.70
72959;BME280;60008;50.826;6.896;2023-04-26T10:08:04;101291.50;;;14.88;48.39
72959;BME280;60008;50.826;6.896;2023-04-26T10:10:50;101287.22;;;12.95;49.20
72959;BME280;60008;50.826;6.896;2023-04-26T10:13:37;101285.72;;;11.91;49.67
72959;BME280;60008;50.826;6.896;2023-04-26T10:16:23;101284.44;;;14.09;55.93
72959;BME280;60008;50.826;6.896;2023-04-26T10:19:09;101302.94;;;10.99;59.24
72959;BME280;60008;50.826;6.896;2023-04-26T10:21:59;101292.84;;;9.45;62.51
72959;BME280;60008;50.826;6.896;2023-04-26T10:24:47;101295.34;;;8.59;69.16
72959;BME280;60008;50.826;6.896;2023-04-26T10:30:28;101285.28;;;11.78;68.37
72959;BME280;60008;50.826;6.896;2023-04-26T10:33:13;101285.22;;;13.05;58.58
72959;BME280;60008;50.826;6.896;2023-04-26T10:36:11;101272.78;;;14.18;54.94
72959;BME280;60008;50.826;6.896;2023-04-26T10:42:18;101264.59;;;15.51;46.41
72959;BME280;60008;50.826;6.896;2023-04-26T10:45:25;101269.22;;;12.89;47.98
72959;BME280;60008;50.826;6.896;2023-04-26T10:48:20;101271.16;;;12.63;53.58
72959;BME280;60008;50.826;6.896;2023-04-26T10:51:09;101274.53;;;11.26;57.86
72959;BME280;60008;50.826;6.896;2023-04-26T10:53:57;101275.00;;;11.40;58.30
72959;BME280;60008;50.826;6.896;2023-04-26T10:59:31;101264.72;;;11.80;58.46
72959;BME280;60008;50.826;6.896;2023-04-26T11:05:57;101269.06;;;11.28;59.54
72959;BME280;60008;50.826;6.896;2023-04-26T11:08:42;101264.00;;;10.54;54.58
72959;BME280;60008;50.826;6.896;2023-04-26T11:11:27;101254.72;;;11.56;53.06
72959;BME280;60008;50.826;6.896;2023-04-26T11:14:16;101255.03;;;11.71;49.41
72959;BME280;60008;50.826;6.896;2023-04-26T11:17:05;101253.00;;;11.12;57.83
72959;BME280;60008;50.826;6.896;2023-04-26T11:19:50;101246.53;;;10.79;60.69
72959;BME280;60008;50.826;6.896;2023-04-26T11:22:38;101244.81;;;13.98;48.09
72959;BME280;60008;50.826;6.896;2023-04-26T11:25:25;101243.81;;;14.85;46.21
72959;BME280;60008;50.826;6.896;2023-04-26T11:28:11;101253.66;;;12.52;50.17
72959;BME280;60008;50.826;6.896;2023-04-26T11:30:56;101247.28;;;12.03;52.93
72959;BME280;60008;50.826;6.896;2023-04-26T11:33:44;101244.81;;;12.93;49.17
72959;BME280;60008;50.826;6.896;2023-04-26T11:36:31;101243.50;;;12.47;50.36
72959;BME280;60008;50.826;6.896;2023-04-26T11:39:18;101237.03;;;12.50;47.67
72959;BME280;60008;50.826;6.896;2023-04-26T11:42:08;101239.63;;;12.00;51.75
72959;BME280;60008;50.826;6.896;2023-04-26T11:44:55;101226.84;;;13.84;49.01
72959;BME280;60008;50.826;6.896;2023-04-26T11:47:42;101212.09;;;13.49;49.99
72959;BME280;60008;50.826;6.896;2023-04-26T11:50:28;101218.41;;;13.08;50.46
72959;BME280;60008;50.826;6.896;2023-04-26T11:53:14;101222.34;;;11.70;48.25
72959;BME280;60008;50.826;6.896;2023-04-26T11:55:59;101220.25;;;12.49;52.57
72959;BME280;60008;50.826;6.896;2023-04-26T11:58:45;101223.31;;;12.71;48.11
72959;BME280;60008;50.826;6.896;2023-04-26T12:01:30;101221.84;;;12.92;53.53
72959;BME280;60008;50.826;6.896;2023-04-26T12:04:16;101223.38;;;11.77;53.17
72959;BME280;60008;50.826;6.896;2023-04-26T12:07:05;101220.34;;;11.72;57.52
72959;BME280;60008;50.826;6.896;2023-04-26T12:09:51;101220.94;;;12.18;55.66
72959;BME280;60008;50.826;6.896;2023-04-26T12:12:36;101222.41;;;10.55;60.59
72959;BME280;60008;50.826;6.896;2023-04-26T12:15:22;101215.22;;;11.53;56.27
72959;BME280;60008;50.826;6.896;2023-04-26T12:18:09;101217.03;;;12.30;55.98
72959;BME280;60008;50.826;6.896;2023-04-26T12:20:57;101219.69;;;11.70;54.68
72959;BME280;60008;50.826;6.896;2023-04-26T12:23:42;101224.84;;;12.39;55.04
72959;BME280;60008;50.826;6.896;2023-04-26T12:26:42;101218.75;;;11.62;53.47
72959;BME280;60008;50.826;6.896;2023-04-26T12:29:28;101230.47;;;11.33;66.51
72959;BME280;60008;50.826;6.896;2023-04-26T12:32:14;101227.66;;;11.53;53.25
72959;BME280;60008;50.826;6.896;2023-04-26T12:34:59;101221.00;;;11.49;52.09
72959;BME280;60008;50.826;6.896;2023-04-26T12:37:45;101222.63;;;11.67;56.30
72959;BME280;60008;50.826;6.896;2023-04-26T12:40:31;101220.69;;;12.37;52.10
72959;BME280;60008;50.826;6.896;2023-04-26T12:43:16;101217.16;;;12.70;54.75
72959;BME280;60008;50.826;6.896;2023-04-26T12:46:01;101216.06;;;12.05;53.69
72959;BME280;60008;50.826;6.896;2023-04-26T12:48:46;101207.06;;;12.98;50.92
72959;BME280;60008;50.826;6.896;2023-04-26T12:51:31;101212.53;;;12.30;55.26
72959;BME280;60008;50.826;6.896;2023-04-26T12:54:17;101219.16;;;12.68;46.19
72959;BME280;60008;50.826;6.896;2023-04-26T12:57:04;101213.63;;;12.12;48.31
72959;BME280;60008;50.826;6.896;2023-04-26T12:59:50;101208.09;;;11.36;47.81
72959;BME280;60008;50.826;6.896;2023-04-26T13:02:35;101199.16;;;12.06;51.37
72959;BME280;60008;50.826;6.896;2023-04-26T13:05:21;101199.84;;;12.58;52.75
72959;BME280;60008;50.826;6.896;2023-04-26T13:08:11;101202.09;;;12.45;51.66
72959;BME280;60008;50.826;6.896;2023-04-26T13:10:56;101202.44;;;12.00;61.92
72959;BME280;60008;50.826;6.896;2023-04-26T13:13:41;101194.66;;;12.48;54.17
72959;BME280;60008;50.826;6.896;2023-04-26T13:16:28;101190.91;;;11.22;55.60
72959;BME280;60008;50.826;6.896;2023-04-26T13:19:13;101191.72;;;12.18;62.31
72959;BME280;60008;50.826;6.896;2023-04-26T13:22:01;101190.50;;;12.54;52.50
72959;BME280;60008;50.826;6.896;2023-04-26T13:24:46;101195.66;;;12.55;51.22
72959;BME280;60008;50.826;6.896;2023-04-26T13:27:31;101195.88;;;12.70;54.87
72959;BME280;60008;50.826;6.896;2023-04-26T13:30:18;101202.41;;;13.00;54.66
72959;BME280;60008;50.826;6.896;2023-04-26T13:33:02;101198.25;;;12.97;51.88
72959;BME280;60008;50.826;6.896;2023-04-26T13:35:48;101195.25;;;12.26;49.17
72959;BME280;60008;50.826;6.896;2023-04-26T13:38:33;101195.34;;;12.59;54.17
72959;BME280;60008;50.826;6.896;2023-04-26T13:41:18;101194.81;;;11.54;51.28
72959;BME280;60008;50.826;6.896;2023-04-26T13:44:03;101197.94;;;12.42;53.78
72959;BME280;60008;50.826;6.896;2023-04-26T13:46:49;101194.25;;;11.68;51.22
72959;BME280;60008;50.826;6.896;2023-04-26T13:49:34;101194.59;;;12.32;52.71
72959;BME280;60008;50.826;6.896;2023-04-26T13:52:19;101190.44;;;11.96;53.03
72959;BME280;60008;50.826;6.896;2023-04-26T13:55:04;101191.94;;;12.32;53.26
72959;BME280;60008;50.826;6.896;2023-04-26T13:57:50;101187.88;;;12.62;54.24
72959;BME280;60008;50.826;6.896;2023-04-26T14:00:35;101181.09;;;12.76;51.00
72959;BME280;60008;50.826;6.896;2023-04-26T14:03:22;101191.00;;;12.49;52.82
72959;BME280;60008;50.826;6.896;2023-04-26T14:06:08;101181.94;;;12.76;53.62
72959;BME280;60008;50.826;6.896;2023-04-26T14:08:53;101176.72;;;11.31;52.58
72959;BME280;60008;50.826;6.896;2023-04-26T14:11:38;101178.69;;;12.40;55.64
72959;BME280;60008;50.826;6.896;2023-04-26T14:14:23;101174.75;;;12.52;53.00
72959;BME280;60008;50.826;6.896;2023-04-26T14:17:08;101177.44;;;12.69;53.39
72959;BME280;60008;50.826;6.896;2023-04-26T14:19:53;101175.19;;;12.40;54.25
72959;BME280;60008;50.826;6.896;2023-04-26T14:22:39;101176.59;;;12.68;49.82
72959;BME280;60008;50.826;6.896;2023-04-26T14:25:23;101171.19;;;11.94;51.13
72959;BME280;60008;50.826;6.896;2023-04-26T14:28:10;101170.84;;;12.31;50.56
72959;BME280;60008;50.826;6.896;2023-04-26T14:30:56;101171.72;;;11.46;52.75
72959;BME280;60008;50.826;6.896;2023-04-26T14:33:41;101170.53;;;11.92;54.13
72959;BME280;60008;50.826;6.896;2023-04-26T14:36:26;101169.75;;;12.08;52.71
72959;BME280;60008;50.826;6.896;2023-04-26T14:39:12;101172.56;;;12.56;60.38
72959;BME280;60008;50.826;6.896;2023-04-26T14:41:57;101158.63;;;12.70;54.86
72959;BME280;60008;50.826;6.896;2023-04-26T14:44:42;101177.31;;;12.28;55.60